NCAR-RAP Real-Time Weather Data

Output produced by METARs form (23 February 2020  02:29 UTC)
found at http://weather.rap.ucar.edu/surface/
 
K8D3 230156Z AUTO 25008G15KT 01/M04 A2981 RMK AO1 SLP120 T00061044
K8D3 230056Z AUTO 24010KT 01/M04 A2980 RMK AO1 SLP116 T00061039